sensor_id;sensor_type;location;lat;lon;timestamp;P1;durP1;ratioP1;P2;durP2;ratioP2
41043;SDS011;51680;49.806;18.774;2022-09-09T00:01:22;2.22;;;1.00;;
41043;SDS011;51680;49.806;18.774;2022-09-09T00:04:35;1.98;;;0.90;;
41043;SDS011;51680;49.806;18.774;2022-09-09T00:07:41;5.05;;;1.20;;
41043;SDS011;51680;49.806;18.774;2022-09-09T00:10:48;2.15;;;1.10;;
41043;SDS011;51680;49.806;18.774;2022-09-09T00:13:58;5.25;;;1.27;;
41043;SDS011;51680;49.806;18.774;2022-09-09T00:17:12;2.47;;;1.10;;
41043;SDS011;51680;49.806;18.774;2022-09-09T00:20:21;2.38;;;0.90;;
41043;SDS011;51680;49.806;18.774;2022-09-09T00:23:30;1.88;;;0.93;;
41043;SDS011;51680;49.806;18.774;2022-09-09T00:26:35;2.95;;;1.13;;
41043;SDS011;51680;49.806;18.774;2022-09-09T00:29:41;4.32;;;0.88;;
41043;SDS011;51680;49.806;18.774;2022-09-09T00:32:45;2.47;;;1.00;;
41043;SDS011;51680;49.806;18.774;2022-09-09T00:35:50;1.80;;;0.85;;
41043;SDS011;51680;49.806;18.774;2022-09-09T00:38:55;4.75;;;1.00;;
41043;SDS011;51680;49.806;18.774;2022-09-09T00:42:04;1.30;;;0.80;;
41043;SDS011;51680;49.806;18.774;2022-09-09T00:45:18;4.00;;;1.00;;
41043;SDS011;51680;49.806;18.774;2022-09-09T00:48:33;5.10;;;1.00;;
41043;SDS011;51680;49.806;18.774;2022-09-09T00:51:46;9.82;;;1.10;;
41043;SDS011;51680;49.806;18.774;2022-09-09T00:55:00;4.15;;;1.00;;
41043;SDS011;51680;49.806;18.774;2022-09-09T00:58:07;3.40;;;1.17;;
41043;SDS011;51680;49.806;18.774;2022-09-09T01:01:10;2.90;;;0.75;;
41043;SDS011;51680;49.806;18.774;2022-09-09T01:04:15;5.10;;;0.90;;
41043;SDS011;51680;49.806;18.774;2022-09-09T01:07:23;4.50;;;0.90;;
41043;SDS011;51680;49.806;18.774;2022-09-09T01:10:26;2.50;;;1.00;;
41043;SDS011;51680;49.806;18.774;2022-09-09T01:13:37;4.78;;;1.10;;
41043;SDS011;51680;49.806;18.774;2022-09-09T01:16:43;4.97;;;1.05;;
41043;SDS011;51680;49.806;18.774;2022-09-09T01:19:52;2.30;;;1.00;;
41043;SDS011;51680;49.806;18.774;2022-09-09T01:23:04;3.47;;;1.00;;
41043;SDS011;51680;49.806;18.774;2022-09-09T01:26:26;1.70;;;0.90;;
41043;SDS011;51680;49.806;18.774;2022-09-09T01:29:35;4.63;;;0.98;;
41043;SDS011;51680;49.806;18.774;2022-09-09T01:32:38;3.03;;;1.00;;
41043;SDS011;51680;49.806;18.774;2022-09-09T01:35:45;3.75;;;1.00;;
41043;SDS011;51680;49.806;18.774;2022-09-09T01:38:51;1.77;;;0.93;;
41043;SDS011;51680;49.806;18.774;2022-09-09T01:41:55;4.28;;;1.10;;
41043;SDS011;51680;49.806;18.774;2022-09-09T01:44:58;2.05;;;1.10;;
41043;SDS011;51680;49.806;18.774;2022-09-09T01:48:00;2.15;;;1.10;;
41043;SDS011;51680;49.806;18.774;2022-09-09T01:51:18;2.47;;;1.05;;
41043;SDS011;51680;49.806;18.774;2022-09-09T01:54:22;1.85;;;0.90;;
41043;SDS011;51680;49.806;18.774;2022-09-09T01:57:28;1.50;;;0.90;;
41043;SDS011;51680;49.806;18.774;2022-09-09T02:00:34;1.67;;;1.02;;
41043;SDS011;51680;49.806;18.774;2022-09-09T02:03:43;2.78;;;1.00;;
41043;SDS011;51680;49.806;18.774;2022-09-09T02:06:53;6.28;;;1.17;;
41043;SDS011;51680;49.806;18.774;2022-09-09T02:10:02;3.20;;;1.17;;
41043;SDS011;51680;49.806;18.774;2022-09-09T02:13:14;2.65;;;1.08;;
41043;SDS011;51680;49.806;18.774;2022-09-09T02:16:21;6.07;;;1.30;;
41043;SDS011;51680;49.806;18.774;2022-09-09T02:19:29;6.32;;;1.55;;
41043;SDS011;51680;49.806;18.774;2022-09-09T02:22:53;3.30;;;1.30;;
41043;SDS011;51680;49.806;18.774;2022-09-09T02:25:58;1.92;;;1.23;;
41043;SDS011;51680;49.806;18.774;2022-09-09T02:29:02;5.25;;;1.73;;
41043;SDS011;51680;49.806;18.774;2022-09-09T02:32:11;2.78;;;1.30;;
41043;SDS011;51680;49.806;18.774;2022-09-09T02:35:17;6.93;;;1.60;;
41043;SDS011;51680;49.806;18.774;2022-09-09T02:38:21;4.25;;;1.58;;
41043;SDS011;51680;49.806;18.774;2022-09-09T02:41:38;6.40;;;1.33;;
41043;SDS011;51680;49.806;18.774;2022-09-09T02:47:47;2.60;;;1.20;;
41043;SDS011;51680;49.806;18.774;2022-09-09T02:50:58;4.72;;;1.73;;
41043;SDS011;51680;49.806;18.774;2022-09-09T02:54:09;6.32;;;1.30;;
41043;SDS011;51680;49.806;18.774;2022-09-09T02:57:19;3.35;;;1.30;;
41043;SDS011;51680;49.806;18.774;2022-09-09T03:00:27;5.13;;;1.35;;
41043;SDS011;51680;49.806;18.774;2022-09-09T03:03:34;2.97;;;1.52;;
41043;SDS011;51680;49.806;18.774;2022-09-09T03:06:41;2.65;;;1.45;;
41043;SDS011;51680;49.806;18.774;2022-09-09T03:09:51;5.40;;;1.45;;
41043;SDS011;51680;49.806;18.774;2022-09-09T03:12:57;2.92;;;1.58;;
41043;SDS011;51680;49.806;18.774;2022-09-09T03:16:04;4.75;;;1.70;;
41043;SDS011;51680;49.806;18.774;2022-09-09T03:19:12;4.40;;;2.10;;
41043;SDS011;51680;49.806;18.774;2022-09-09T03:22:15;2.17;;;1.55;;
41043;SDS011;51680;49.806;18.774;2022-09-09T03:25:18;4.28;;;2.10;;
41043;SDS011;51680;49.806;18.774;2022-09-09T03:28:20;2.90;;;1.48;;
41043;SDS011;51680;49.806;18.774;2022-09-09T03:34:30;3.85;;;1.70;;
41043;SDS011;51680;49.806;18.774;2022-09-09T03:37:33;5.97;;;2.20;;
41043;SDS011;51680;49.806;18.774;2022-09-09T03:40:35;3.85;;;1.90;;
41043;SDS011;51680;49.806;18.774;2022-09-09T03:43:37;3.20;;;2.03;;
41043;SDS011;51680;49.806;18.774;2022-09-09T03:46:40;6.43;;;2.92;;
41043;SDS011;51680;49.806;18.774;2022-09-09T03:49:42;4.67;;;2.20;;
41043;SDS011;51680;49.806;18.774;2022-09-09T03:52:44;6.82;;;2.40;;
41043;SDS011;51680;49.806;18.774;2022-09-09T03:55:53;5.70;;;1.90;;
41043;SDS011;51680;49.806;18.774;2022-09-09T03:58:57;5.70;;;2.20;;
41043;SDS011;51680;49.806;18.774;2022-09-09T04:02:01;4.65;;;2.03;;
41043;SDS011;51680;49.806;18.774;2022-09-09T04:05:03;2.88;;;2.00;;
41043;SDS011;51680;49.806;18.774;2022-09-09T04:08:07;5.93;;;2.38;;
41043;SDS011;51680;49.806;18.774;2022-09-09T04:11:09;5.72;;;2.15;;
41043;SDS011;51680;49.806;18.774;2022-09-09T04:14:12;4.55;;;2.20;;
41043;SDS011;51680;49.806;18.774;2022-09-09T04:17:15;4.70;;;1.80;;
41043;SDS011;51680;49.806;18.774;2022-09-09T04:20:18;4.57;;;1.88;;
41043;SDS011;51680;49.806;18.774;2022-09-09T04:23:20;5.80;;;1.95;;
41043;SDS011;51680;49.806;18.774;2022-09-09T04:26:23;7.80;;;2.05;;
41043;SDS011;51680;49.806;18.774;2022-09-09T04:29:25;4.45;;;1.83;;
41043;SDS011;51680;49.806;18.774;2022-09-09T04:32:28;5.40;;;2.33;;
41043;SDS011;51680;49.806;18.774;2022-09-09T04:35:32;9.90;;;3.08;;
41043;SDS011;51680;49.806;18.774;2022-09-09T04:38:35;10.27;;;2.35;;
41043;SDS011;51680;49.806;18.774;2022-09-09T04:41:37;7.72;;;3.20;;
41043;SDS011;51680;49.806;18.774;2022-09-09T04:44:40;5.65;;;2.78;;
41043;SDS011;51680;49.806;18.774;2022-09-09T04:47:43;5.85;;;2.63;;
41043;SDS011;51680;49.806;18.774;2022-09-09T04:50:53;8.97;;;3.67;;
41043;SDS011;51680;49.806;18.774;2022-09-09T04:53:56;8.45;;;4.10;;
41043;SDS011;51680;49.806;18.774;2022-09-09T04:56:57;8.27;;;4.18;;
41043;SDS011;51680;49.806;18.774;2022-09-09T04:59:59;7.53;;;5.03;;
41043;SDS011;51680;49.806;18.774;2022-09-09T05:03:09;11.20;;;5.47;;
41043;SDS011;51680;49.806;18.774;2022-09-09T05:06:11;9.75;;;5.93;;
41043;SDS011;51680;49.806;18.774;2022-09-09T05:09:15;9.82;;;4.85;;
41043;SDS011;51680;49.806;18.774;2022-09-09T05:12:18;7.07;;;5.10;;
41043;SDS011;51680;49.806;18.774;2022-09-09T05:15:25;8.93;;;4.47;;
41043;SDS011;51680;49.806;18.774;2022-09-09T05:18:28;5.82;;;3.83;;
41043;SDS011;51680;49.806;18.774;2022-09-09T05:21:30;5.82;;;3.75;;
41043;SDS011;51680;49.806;18.774;2022-09-09T05:24:31;10.88;;;4.28;;
41043;SDS011;51680;49.806;18.774;2022-09-09T05:27:34;6.43;;;3.72;;
41043;SDS011;51680;49.806;18.774;2022-09-09T05:30:36;9.40;;;4.75;;
41043;SDS011;51680;49.806;18.774;2022-09-09T05:33:41;10.60;;;5.47;;
41043;SDS011;51680;49.806;18.774;2022-09-09T05:36:46;9.88;;;5.22;;
41043;SDS011;51680;49.806;18.774;2022-09-09T05:39:49;6.32;;;4.75;;
41043;SDS011;51680;49.806;18.774;2022-09-09T05:42:51;8.90;;;5.20;;
41043;SDS011;51680;49.806;18.774;2022-09-09T05:46:00;10.55;;;5.53;;
41043;SDS011;51680;49.806;18.774;2022-09-09T05:49:06;7.40;;;5.68;;
41043;SDS011;51680;49.806;18.774;2022-09-09T05:52:09;8.48;;;4.53;;
41043;SDS011;51680;49.806;18.774;2022-09-09T05:55:11;9.70;;;5.00;;
41043;SDS011;51680;49.806;18.774;2022-09-09T05:58:13;6.78;;;3.83;;
41043;SDS011;51680;49.806;18.774;2022-09-09T06:01:18;9.73;;;3.95;;
41043;SDS011;51680;49.806;18.774;2022-09-09T06:04:22;6.93;;;3.75;;
41043;SDS011;51680;49.806;18.774;2022-09-09T06:10:26;6.68;;;3.22;;
41043;SDS011;51680;49.806;18.774;2022-09-09T06:13:29;6.40;;;3.00;;
41043;SDS011;51680;49.806;18.774;2022-09-09T06:16:32;6.40;;;2.95;;
41043;SDS011;51680;49.806;18.774;2022-09-09T06:19:36;5.57;;;2.92;;
41043;SDS011;51680;49.806;18.774;2022-09-09T06:22:38;8.65;;;2.80;;
41043;SDS011;51680;49.806;18.774;2022-09-09T06:25:41;3.00;;;2.30;;
41043;SDS011;51680;49.806;18.774;2022-09-09T06:28:43;8.98;;;2.60;;
41043;SDS011;51680;49.806;18.774;2022-09-09T06:31:46;2.65;;;1.83;;
41043;SDS011;51680;49.806;18.774;2022-09-09T06:34:55;4.38;;;2.03;;
41043;SDS011;51680;49.806;18.774;2022-09-09T06:37:57;3.15;;;2.20;;
41043;SDS011;51680;49.806;18.774;2022-09-09T06:40:59;4.22;;;1.88;;
41043;SDS011;51680;49.806;18.774;2022-09-09T06:44:03;9.32;;;2.17;;
41043;SDS011;51680;49.806;18.774;2022-09-09T06:47:12;5.97;;;2.25;;
41043;SDS011;51680;49.806;18.774;2022-09-09T06:50:17;5.22;;;2.40;;
41043;SDS011;51680;49.806;18.774;2022-09-09T06:53:20;6.40;;;2.05;;
41043;SDS011;51680;49.806;18.774;2022-09-09T06:56:23;4.65;;;1.98;;
41043;SDS011;51680;49.806;18.774;2022-09-09T06:59:29;4.38;;;1.92;;
41043;SDS011;51680;49.806;18.774;2022-09-09T07:02:33;4.15;;;1.88;;
41043;SDS011;51680;49.806;18.774;2022-09-09T07:05:41;4.40;;;1.63;;
41043;SDS011;51680;49.806;18.774;2022-09-09T07:08:48;4.18;;;1.80;;
41043;SDS011;51680;49.806;18.774;2022-09-09T07:11:51;4.13;;;2.05;;
41043;SDS011;51680;49.806;18.774;2022-09-09T07:14:55;6.32;;;1.67;;
41043;SDS011;51680;49.806;18.774;2022-09-09T07:18:00;8.25;;;2.20;;
41043;SDS011;51680;49.806;18.774;2022-09-09T07:21:04;3.20;;;1.40;;
41043;SDS011;51680;49.806;18.774;2022-09-09T07:27:10;6.13;;;1.60;;
41043;SDS011;51680;49.806;18.774;2022-09-09T07:30:12;4.78;;;1.50;;
41043;SDS011;51680;49.806;18.774;2022-09-09T07:33:15;4.90;;;2.38;;
41043;SDS011;51680;49.806;18.774;2022-09-09T07:36:19;2.72;;;1.60;;
41043;SDS011;51680;49.806;18.774;2022-09-09T07:39:23;4.78;;;1.30;;
41043;SDS011;51680;49.806;18.774;2022-09-09T07:42:27;3.60;;;1.58;;
41043;SDS011;51680;49.806;18.774;2022-09-09T07:45:29;9.45;;;1.60;;
41043;SDS011;51680;49.806;18.774;2022-09-09T07:48:33;3.95;;;1.50;;
41043;SDS011;51680;49.806;18.774;2022-09-09T07:51:37;3.42;;;1.17;;
41043;SDS011;51680;49.806;18.774;2022-09-09T07:54:41;4.72;;;1.23;;
41043;SDS011;51680;49.806;18.774;2022-09-09T07:57:44;3.88;;;0.90;;
41043;SDS011;51680;49.806;18.774;2022-09-09T08:00:48;3.42;;;1.02;;
41043;SDS011;51680;49.806;18.774;2022-09-09T08:03:52;2.13;;;0.98;;
41043;SDS011;51680;49.806;18.774;2022-09-09T08:06:58;2.38;;;1.00;;
41043;SDS011;51680;49.806;18.774;2022-09-09T08:10:02;2.35;;;1.27;;
41043;SDS011;51680;49.806;18.774;2022-09-09T08:13:08;1.67;;;0.90;;
41043;SDS011;51680;49.806;18.774;2022-09-09T08:16:12;1.65;;;0.90;;
41043;SDS011;51680;49.806;18.774;2022-09-09T08:19:15;1.45;;;0.80;;
41043;SDS011;51680;49.806;18.774;2022-09-09T08:22:20;3.40;;;0.90;;
41043;SDS011;51680;49.806;18.774;2022-09-09T08:25:23;2.38;;;0.63;;
41043;SDS011;51680;49.806;18.774;2022-09-09T08:28:26;1.67;;;0.80;;
41043;SDS011;51680;49.806;18.774;2022-09-09T08:31:29;4.57;;;0.60;;
41043;SDS011;51680;49.806;18.774;2022-09-09T08:34:32;1.83;;;0.80;;
41043;SDS011;51680;49.806;18.774;2022-09-09T08:37:39;2.55;;;0.80;;
41043;SDS011;51680;49.806;18.774;2022-09-09T08:40:42;2.72;;;0.90;;
41043;SDS011;51680;49.806;18.774;2022-09-09T08:43:50;3.28;;;1.00;;
41043;SDS011;51680;49.806;18.774;2022-09-09T08:47:02;1.02;;;0.60;;
41043;SDS011;51680;49.806;18.774;2022-09-09T08:50:16;1.05;;;0.63;;
41043;SDS011;51680;49.806;18.774;2022-09-09T08:53:27;3.75;;;0.93;;
41043;SDS011;51680;49.806;18.774;2022-09-09T08:56:36;4.35;;;1.10;;
41043;SDS011;51680;49.806;18.774;2022-09-09T08:59:38;1.42;;;0.77;;
41043;SDS011;51680;49.806;18.774;2022-09-09T09:02:42;2.25;;;0.93;;
41043;SDS011;51680;49.806;18.774;2022-09-09T09:05:52;1.20;;;0.70;;
41043;SDS011;51680;49.806;18.774;2022-09-09T09:09:05;2.90;;;0.88;;
41043;SDS011;51680;49.806;18.774;2022-09-09T09:12:14;2.97;;;0.63;;
41043;SDS011;51680;49.806;18.774;2022-09-09T09:15:19;2.38;;;0.60;;
41043;SDS011;51680;49.806;18.774;2022-09-09T09:18:25;1.95;;;0.70;;
41043;SDS011;51680;49.806;18.774;2022-09-09T09:21:31;1.57;;;0.70;;
41043;SDS011;51680;49.806;18.774;2022-09-09T09:24:41;4.55;;;0.82;;
41043;SDS011;51680;49.806;18.774;2022-09-09T09:27:57;1.77;;;0.50;;
41043;SDS011;51680;49.806;18.774;2022-09-09T09:31:03;2.08;;;0.70;;
41043;SDS011;51680;49.806;18.774;2022-09-09T09:34:09;1.15;;;0.50;;
41043;SDS011;51680;49.806;18.774;2022-09-09T09:37:15;1.73;;;0.68;;
41043;SDS011;51680;49.806;18.774;2022-09-09T09:40:23;1.30;;;0.50;;
41043;SDS011;51680;49.806;18.774;2022-09-09T09:46:31;2.35;;;0.70;;
41043;SDS011;51680;49.806;18.774;2022-09-09T09:49:50;1.05;;;0.60;;
41043;SDS011;51680;49.806;18.774;2022-09-09T09:52:54;2.30;;;0.50;;
41043;SDS011;51680;49.806;18.774;2022-09-09T09:55:59;0.45;;;0.20;;
41043;SDS011;51680;49.806;18.774;2022-09-09T09:59:03;2.55;;;0.68;;
41043;SDS011;51680;49.806;18.774;2022-09-09T10:02:17;1.83;;;0.70;;
41043;SDS011;51680;49.806;18.774;2022-09-09T10:05:27;1.52;;;0.70;;
41043;SDS011;51680;49.806;18.774;2022-09-09T10:08:44;2.20;;;0.60;;
41043;SDS011;51680;49.806;18.774;2022-09-09T10:11:50;1.73;;;0.43;;
41043;SDS011;51680;49.806;18.774;2022-09-09T10:15:05;1.17;;;0.43;;
41043;SDS011;51680;49.806;18.774;2022-09-09T10:18:17;2.95;;;0.70;;
41043;SDS011;51680;49.806;18.774;2022-09-09T10:21:44;1.05;;;0.50;;
41043;SDS011;51680;49.806;18.774;2022-09-09T10:28:39;1.83;;;0.60;;
41043;SDS011;51680;49.806;18.774;2022-09-09T10:31:58;2.35;;;0.70;;
41043;SDS011;51680;49.806;18.774;2022-09-09T10:35:12;1.45;;;0.77;;
41043;SDS011;51680;49.806;18.774;2022-09-09T10:38:24;3.10;;;0.87;;
41043;SDS011;51680;49.806;18.774;2022-09-09T10:41:34;1.98;;;0.60;;
41043;SDS011;51680;49.806;18.774;2022-09-09T10:44:50;2.33;;;0.70;;
41043;SDS011;51680;49.806;18.774;2022-09-09T10:48:05;4.13;;;0.70;;
41043;SDS011;51680;49.806;18.774;2022-09-09T10:51:22;0.90;;;0.60;;
41043;SDS011;51680;49.806;18.774;2022-09-09T10:54:32;2.25;;;0.57;;
41043;SDS011;51680;49.806;18.774;2022-09-09T10:57:45;8.63;;;0.90;;
41043;SDS011;51680;49.806;18.774;2022-09-09T11:00:50;2.00;;;0.70;;
41043;SDS011;51680;49.806;18.774;2022-09-09T11:03:56;2.53;;;0.60;;
41043;SDS011;51680;49.806;18.774;2022-09-09T11:07:05;1.83;;;0.70;;
41043;SDS011;51680;49.806;18.774;2022-09-09T11:10:16;3.00;;;1.00;;
41043;SDS011;51680;49.806;18.774;2022-09-09T11:13:23;2.22;;;0.63;;
41043;SDS011;51680;49.806;18.774;2022-09-09T11:16:35;3.00;;;0.70;;
41043;SDS011;51680;49.806;18.774;2022-09-09T11:19:43;1.48;;;0.55;;
41043;SDS011;51680;49.806;18.774;2022-09-09T11:22:47;1.60;;;0.70;;
41043;SDS011;51680;49.806;18.774;2022-09-09T11:25:54;1.58;;;0.50;;
41043;SDS011;51680;49.806;18.774;2022-09-09T11:29:08;1.30;;;0.43;;
41043;SDS011;51680;49.806;18.774;2022-09-09T11:32:29;2.42;;;0.60;;
41043;SDS011;51680;49.806;18.774;2022-09-09T11:35:48;0.85;;;0.30;;
41043;SDS011;51680;49.806;18.774;2022-09-09T11:39:05;1.42;;;0.50;;
41043;SDS011;51680;49.806;18.774;2022-09-09T11:42:28;2.92;;;0.30;;
41043;SDS011;51680;49.806;18.774;2022-09-09T11:45:30;0.73;;;0.40;;
41043;SDS011;51680;49.806;18.774;2022-09-09T11:48:37;0.82;;;0.38;;
41043;SDS011;51680;49.806;18.774;2022-09-09T11:51:43;3.08;;;0.30;;
41043;SDS011;51680;49.806;18.774;2022-09-09T11:54:46;1.13;;;0.30;;
41043;SDS011;51680;49.806;18.774;2022-09-09T11:57:56;2.40;;;0.38;;
41043;SDS011;51680;49.806;18.774;2022-09-09T12:00:59;2.40;;;0.57;;
41043;SDS011;51680;49.806;18.774;2022-09-09T12:07:33;1.38;;;0.75;;
41043;SDS011;51680;49.806;18.774;2022-09-09T12:10:39;3.83;;;0.90;;
41043;SDS011;51680;49.806;18.774;2022-09-09T12:13:41;1.35;;;0.70;;
41043;SDS011;51680;49.806;18.774;2022-09-09T12:16:54;1.42;;;0.52;;
41043;SDS011;51680;49.806;18.774;2022-09-09T12:20:08;1.77;;;0.35;;
41043;SDS011;51680;49.806;18.774;2022-09-09T12:23:19;2.53;;;0.60;;
41043;SDS011;51680;49.806;18.774;2022-09-09T12:26:31;1.05;;;0.30;;
41043;SDS011;51680;49.806;18.774;2022-09-09T12:29:37;2.22;;;0.70;;
41043;SDS011;51680;49.806;18.774;2022-09-09T12:32:47;1.80;;;0.43;;
41043;SDS011;51680;49.806;18.774;2022-09-09T12:35:53;2.63;;;0.50;;
41043;SDS011;51680;49.806;18.774;2022-09-09T12:39:09;1.50;;;0.60;;
41043;SDS011;51680;49.806;18.774;2022-09-09T12:42:18;1.58;;;0.52;;
41043;SDS011;51680;49.806;18.774;2022-09-09T12:45:21;1.55;;;0.50;;
41043;SDS011;51680;49.806;18.774;2022-09-09T12:48:28;1.17;;;0.47;;
41043;SDS011;51680;49.806;18.774;2022-09-09T12:51:35;1.40;;;0.47;;
41043;SDS011;51680;49.806;18.774;2022-09-09T12:57:47;1.70;;;0.40;;
41043;SDS011;51680;49.806;18.774;2022-09-09T13:00:51;1.90;;;0.70;;
41043;SDS011;51680;49.806;18.774;2022-09-09T13:03:56;2.13;;;0.60;;
41043;SDS011;51680;49.806;18.774;2022-09-09T13:07:06;3.50;;;0.63;;
41043;SDS011;51680;49.806;18.774;2022-09-09T13:10:12;1.38;;;0.55;;
41043;SDS011;51680;49.806;18.774;2022-09-09T13:13:15;1.50;;;0.67;;
41043;SDS011;51680;49.806;18.774;2022-09-09T13:16:19;4.25;;;0.57;;
41043;SDS011;51680;49.806;18.774;2022-09-09T13:19:24;2.78;;;0.60;;
41043;SDS011;51680;49.806;18.774;2022-09-09T13:22:30;1.52;;;0.50;;
41043;SDS011;51680;49.806;18.774;2022-09-09T13:25:40;3.28;;;0.70;;
41043;SDS011;51680;49.806;18.774;2022-09-09T13:28:43;2.25;;;0.70;;
41043;SDS011;51680;49.806;18.774;2022-09-09T13:31:46;0.93;;;0.50;;
41043;SDS011;51680;49.806;18.774;2022-09-09T13:34:53;2.53;;;0.50;;
41043;SDS011;51680;49.806;18.774;2022-09-09T13:37:57;2.17;;;0.73;;
41043;SDS011;51680;49.806;18.774;2022-09-09T13:41:01;2.72;;;0.50;;
41043;SDS011;51680;49.806;18.774;2022-09-09T13:44:04;3.17;;;1.95;;
41043;SDS011;51680;49.806;18.774;2022-09-09T13:47:17;3.42;;;1.00;;
41043;SDS011;51680;49.806;18.774;2022-09-09T13:50:21;2.13;;;1.00;;
41043;SDS011;51680;49.806;18.774;2022-09-09T13:53:27;2.15;;;0.98;;
41043;SDS011;51680;49.806;18.774;2022-09-09T13:56:28;1.27;;;0.65;;
41043;SDS011;51680;49.806;18.774;2022-09-09T13:59:30;1.55;;;0.73;;
41043;SDS011;51680;49.806;18.774;2022-09-09T14:02:32;1.75;;;0.80;;
41043;SDS011;51680;49.806;18.774;2022-09-09T14:05:34;1.52;;;0.63;;
41043;SDS011;51680;49.806;18.774;2022-09-09T14:08:37;2.40;;;0.63;;
41043;SDS011;51680;49.806;18.774;2022-09-09T14:14:42;1.50;;;0.70;;
41043;SDS011;51680;49.806;18.774;2022-09-09T14:17:44;4.60;;;0.80;;
41043;SDS011;51680;49.806;18.774;2022-09-09T14:20:45;1.13;;;0.70;;
41043;SDS011;51680;49.806;18.774;2022-09-09T14:23:49;1.65;;;0.70;;
41043;SDS011;51680;49.806;18.774;2022-09-09T14:26:50;2.78;;;1.10;;
41043;SDS011;51680;49.806;18.774;2022-09-09T14:29:53;2.22;;;0.90;;
41043;SDS011;51680;49.806;18.774;2022-09-09T14:32:54;1.58;;;0.77;;
41043;SDS011;51680;49.806;18.774;2022-09-09T14:35:56;5.00;;;1.33;;
41043;SDS011;51680;49.806;18.774;2022-09-09T14:39:00;2.75;;;1.17;;
41043;SDS011;51680;49.806;18.774;2022-09-09T14:42:02;2.72;;;1.35;;
41043;SDS011;51680;49.806;18.774;2022-09-09T14:45:05;3.42;;;1.58;;
41043;SDS011;51680;49.806;18.774;2022-09-09T14:48:07;4.95;;;1.45;;
41043;SDS011;51680;49.806;18.774;2022-09-09T14:51:10;4.13;;;1.13;;
41043;SDS011;51680;49.806;18.774;2022-09-09T14:54:15;6.82;;;1.83;;
41043;SDS011;51680;49.806;18.774;2022-09-09T14:57:16;3.72;;;1.50;;
41043;SDS011;51680;49.806;18.774;2022-09-09T15:00:18;2.25;;;1.20;;
41043;SDS011;51680;49.806;18.774;2022-09-09T15:03:20;2.03;;;0.93;;
41043;SDS011;51680;49.806;18.774;2022-09-09T15:06:23;4.47;;;0.90;;
41043;SDS011;51680;49.806;18.774;2022-09-09T15:09:27;3.95;;;1.00;;
41043;SDS011;51680;49.806;18.774;2022-09-09T15:12:29;2.67;;;0.80;;
41043;SDS011;51680;49.806;18.774;2022-09-09T15:15:32;3.33;;;0.90;;
41043;SDS011;51680;49.806;18.774;2022-09-09T15:18:35;1.60;;;0.85;;
41043;SDS011;51680;49.806;18.774;2022-09-09T15:21:40;2.28;;;0.80;;
41043;SDS011;51680;49.806;18.774;2022-09-09T15:24:43;1.55;;;0.70;;
41043;SDS011;51680;49.806;18.774;2022-09-09T15:27:45;5.03;;;1.00;;
41043;SDS011;51680;49.806;18.774;2022-09-09T15:30:47;1.45;;;0.93;;
41043;SDS011;51680;49.806;18.774;2022-09-09T15:33:49;5.75;;;0.95;;
41043;SDS011;51680;49.806;18.774;2022-09-09T15:36:53;3.60;;;1.00;;
41043;SDS011;51680;49.806;18.774;2022-09-09T15:39:56;3.38;;;0.90;;
41043;SDS011;51680;49.806;18.774;2022-09-09T15:43:00;2.83;;;1.05;;
41043;SDS011;51680;49.806;18.774;2022-09-09T15:46:05;2.92;;;1.05;;
41043;SDS011;51680;49.806;18.774;2022-09-09T15:49:24;5.45;;;2.40;;
41043;SDS011;51680;49.806;18.774;2022-09-09T15:52:27;4.33;;;1.80;;
41043;SDS011;51680;49.806;18.774;2022-09-09T15:55:30;6.07;;;1.55;;
41043;SDS011;51680;49.806;18.774;2022-09-09T15:58:32;7.37;;;3.97;;
41043;SDS011;51680;49.806;18.774;2022-09-09T16:01:35;13.87;;;5.47;;
41043;SDS011;51680;49.806;18.774;2022-09-09T16:04:38;2.78;;;1.48;;
41043;SDS011;51680;49.806;18.774;2022-09-09T16:07:40;4.90;;;1.30;;
41043;SDS011;51680;49.806;18.774;2022-09-09T16:10:44;3.33;;;1.55;;
41043;SDS011;51680;49.806;18.774;2022-09-09T16:13:46;9.75;;;4.45;;
41043;SDS011;51680;49.806;18.774;2022-09-09T16:16:49;10.00;;;3.05;;
41043;SDS011;51680;49.806;18.774;2022-09-09T16:19:51;17.20;;;5.03;;
41043;SDS011;51680;49.806;18.774;2022-09-09T16:22:54;6.65;;;2.60;;
41043;SDS011;51680;49.806;18.774;2022-09-09T16:25:58;5.97;;;2.50;;
41043;SDS011;51680;49.806;18.774;2022-09-09T16:29:00;6.18;;;2.17;;
41043;SDS011;51680;49.806;18.774;2022-09-09T16:32:03;7.07;;;2.72;;
41043;SDS011;51680;49.806;18.774;2022-09-09T16:35:05;5.78;;;2.53;;
41043;SDS011;51680;49.806;18.774;2022-09-09T16:38:07;7.95;;;2.60;;
41043;SDS011;51680;49.806;18.774;2022-09-09T16:41:11;7.13;;;2.67;;
41043;SDS011;51680;49.806;18.774;2022-09-09T16:44:15;6.35;;;2.63;;
41043;SDS011;51680;49.806;18.774;2022-09-09T16:50:21;7.03;;;2.78;;
41043;SDS011;51680;49.806;18.774;2022-09-09T16:53:23;5.38;;;2.50;;
41043;SDS011;51680;49.806;18.774;2022-09-09T16:56:27;4.65;;;2.40;;
41043;SDS011;51680;49.806;18.774;2022-09-09T16:59:32;5.50;;;2.50;;
41043;SDS011;51680;49.806;18.774;2022-09-09T17:02:34;7.00;;;2.50;;
41043;SDS011;51680;49.806;18.774;2022-09-09T17:05:39;6.80;;;2.78;;
41043;SDS011;51680;49.806;18.774;2022-09-09T17:08:41;7.57;;;3.97;;
41043;SDS011;51680;49.806;18.774;2022-09-09T17:11:44;10.45;;;4.28;;
41043;SDS011;51680;49.806;18.774;2022-09-09T17:14:47;8.32;;;4.30;;
41043;SDS011;51680;49.806;18.774;2022-09-09T17:17:49;9.27;;;4.00;;
41043;SDS011;51680;49.806;18.774;2022-09-09T17:20:53;6.72;;;3.45;;
41043;SDS011;51680;49.806;18.774;2022-09-09T17:23:56;6.95;;;3.20;;
41043;SDS011;51680;49.806;18.774;2022-09-09T17:27:00;7.70;;;3.30;;
41043;SDS011;51680;49.806;18.774;2022-09-09T17:30:02;4.38;;;2.72;;
41043;SDS011;51680;49.806;18.774;2022-09-09T17:33:05;6.63;;;2.88;;
41043;SDS011;51680;49.806;18.774;2022-09-09T17:36:08;17.33;;;7.82;;
41043;SDS011;51680;49.806;18.774;2022-09-09T17:39:12;16.02;;;8.27;;
41043;SDS011;51680;49.806;18.774;2022-09-09T17:42:15;12.75;;;6.60;;
41043;SDS011;51680;49.806;18.774;2022-09-09T17:45:18;8.30;;;4.63;;
41043;SDS011;51680;49.806;18.774;2022-09-09T17:48:20;6.68;;;3.65;;
41043;SDS011;51680;49.806;18.774;2022-09-09T17:51:22;10.10;;;4.55;;
41043;SDS011;51680;49.806;18.774;2022-09-09T17:54:28;8.52;;;4.65;;
41043;SDS011;51680;49.806;18.774;2022-09-09T17:57:31;8.27;;;4.57;;
41043;SDS011;51680;49.806;18.774;2022-09-09T18:00:33;10.57;;;4.45;;
41043;SDS011;51680;49.806;18.774;2022-09-09T18:03:35;11.43;;;3.90;;
41043;SDS011;51680;49.806;18.774;2022-09-09T18:06:38;10.95;;;5.03;;
41043;SDS011;51680;49.806;18.774;2022-09-09T18:09:41;8.52;;;4.70;;
41043;SDS011;51680;49.806;18.774;2022-09-09T18:12:45;12.27;;;4.40;;
41043;SDS011;51680;49.806;18.774;2022-09-09T18:15:46;10.87;;;4.37;;
41043;SDS011;51680;49.806;18.774;2022-09-09T18:18:48;7.63;;;3.92;;
41043;SDS011;51680;49.806;18.774;2022-09-09T18:21:51;7.97;;;3.75;;
41043;SDS011;51680;49.806;18.774;2022-09-09T18:24:53;11.60;;;4.60;;
41043;SDS011;51680;49.806;18.774;2022-09-09T18:27:57;9.63;;;4.65;;
41043;SDS011;51680;49.806;18.774;2022-09-09T18:30:59;7.63;;;3.65;;
41043;SDS011;51680;49.806;18.774;2022-09-09T18:34:01;9.25;;;3.85;;
41043;SDS011;51680;49.806;18.774;2022-09-09T18:37:04;6.43;;;3.88;;
41043;SDS011;51680;49.806;18.774;2022-09-09T18:40:07;10.25;;;3.70;;
41043;SDS011;51680;49.806;18.774;2022-09-09T18:43:10;8.45;;;3.70;;
41043;SDS011;51680;49.806;18.774;2022-09-09T18:46:13;7.25;;;3.20;;
41043;SDS011;51680;49.806;18.774;2022-09-09T18:49:16;11.02;;;3.42;;
41043;SDS011;51680;49.806;18.774;2022-09-09T18:52:18;10.88;;;3.60;;